Time;durP1;ratioP1;P1;durP2;ratioP2;P2;SDS_P1;SDS_P2;PMS_P1;PMS_P2;Temp;Humidity;BMP_temperature;BMP_pressure;BME280_temperature;BME280_humidity;BME280_pressure;Samples;Min_cycle;Max_cycle;Signal;HPM_P1;HPM_P2
2023/05/18 00:01:47;;;;;;;1.73;1.20;;;;;;;10.43;82.54;92545.72;4952384;29;20449;-76
2023/05/18 00:04:13;;;;;;;2.45;1.17;;;;;;;10.41;81.52;92532.16;4936015;29;20031;-77
2023/05/18 00:06:38;;;;;;;1.75;1.10;;;;;;;10.40;82.09;92546.28;4953207;29;20405;-76
2023/05/18 00:09:04;;;;;;;1.70;1.20;;;;;;;10.38;83.08;92549.19;4953120;29;20090;-76
2023/05/18 00:11:30;;;;;;;3.00;1.20;;;;;;;10.38;83.32;92540.56;4951007;29;20090;-76
2023/05/18 00:13:55;;;;;;;1.65;1.10;;;;;;;10.39;83.17;92539.50;4950045;28;20027;-77
2023/05/18 00:16:21;;;;;;;3.08;1.30;;;;;;;10.38;82.99;92527.47;4953213;29;20031;-77
2023/05/18 00:18:46;;;;;;;5.22;1.40;;;;;;;10.37;82.40;92536.38;4952960;29;20035;-76
2023/05/18 00:21:14;;;;;;;2.72;1.20;;;;;;;10.38;80.73;92537.94;4917905;29;20044;-77
2023/05/18 00:23:41;;;;;;;1.45;1.10;;;;;;;10.38;80.32;92530.09;4936146;29;20073;-77
2023/05/18 00:26:06;;;;;;;1.83;1.30;;;;;;;10.37;80.33;92528.53;4953278;29;20478;-76
2023/05/18 00:28:32;;;;;;;1.90;1.02;;;;;;;10.38;80.63;92527.47;4936200;29;20038;-77
2023/05/18 00:30:59;;;;;;;1.45;1.10;;;;;;;10.37;80.59;92533.78;4948059;29;20036;-77
2023/05/18 00:33:24;;;;;;;1.48;1.10;;;;;;;10.36;81.06;92532.22;4934193;29;20094;-77
2023/05/18 00:35:50;;;;;;;1.77;1.10;;;;;;;10.35;80.65;92539.28;4953002;29;20110;-77
2023/05/18 00:38:16;;;;;;;1.45;1.10;;;;;;;10.33;79.95;92536.16;4935396;29;20027;-77
2023/05/18 00:40:42;;;;;;;3.30;1.23;;;;;;;10.33;80.93;92535.41;4935505;29;20039;-77
2023/05/18 00:43:10;;;;;;;1.55;1.00;;;;;;;10.31;80.75;92530.47;4952836;28;20039;-77
2023/05/18 00:45:35;;;;;;;1.77;1.05;;;;;;;10.32;80.86;92534.63;4935344;29;20050;-77
2023/05/18 00:48:01;;;;;;;1.27;1.00;;;;;;;10.33;81.08;92530.16;4919849;29;20098;-76
2023/05/18 00:50:27;;;;;;;1.38;1.10;;;;;;;10.34;81.24;92531.72;4951515;29;20031;-77
2023/05/18 00:52:53;;;;;;;2.20;1.30;;;;;;;10.31;83.49;92530.47;4945503;29;20055;-77
2023/05/18 00:55:19;;;;;;;2.03;1.30;;;;;;;10.29;83.03;92532.59;4949035;29;20114;-77
2023/05/18 00:57:47;;;;;;;1.70;1.10;;;;;;;10.28;82.99;92528.38;4952787;29;20400;-76
2023/05/18 01:00:14;;;;;;;1.50;1.10;;;;;;;10.28;83.19;92527.59;4952396;29;20078;-77
2023/05/18 01:02:44;;;;;;;1.60;1.10;;;;;;;10.29;82.54;92531.78;4952714;29;20043;-77
2023/05/18 01:05:11;;;;;;;1.23;1.02;;;;;;;10.30;81.95;92525.50;4953348;28;20030;-77
2023/05/18 01:07:38;;;;;;;1.52;1.10;;;;;;;10.30;82.19;92525.50;4920785;29;20103;-77
2023/05/18 01:10:05;;;;;;;1.65;1.05;;;;;;;10.30;82.68;92530.75;4954120;29;20046;-77
2023/05/18 01:12:52;;;;;;;2.17;1.33;;;;;;;10.30;82.99;92530.75;4956306;29;20039;-76
2023/05/18 01:15:22;;;;;;;2.08;1.30;;;;;;;10.29;83.24;92534.41;4950404;29;20074;-77
2023/05/18 01:18:09;;;;;;;4.55;1.20;;;;;;;10.27;84.51;92533.88;4938974;29;20078;-77
2023/05/18 01:20:44;;;;;;;1.85;1.30;;;;;;;10.24;85.23;92540.44;4955339;29;20034;-77
2023/05/18 01:23:43;;;;;;;2.25;1.35;;;;;;;10.23;84.72;92536.28;4956139;28;20050;-77
2023/05/18 01:26:14;;;;;;;1.60;1.10;;;;;;;10.19;87.84;92536.06;4940017;29;20038;-76
2023/05/18 01:28:45;;;;;;;1.98;1.20;;;;;;;10.19;87.54;92535.28;4938589;29;20031;-76
2023/05/18 01:31:13;;;;;;;2.40;1.35;;;;;;;10.16;86.94;92539.25;4938077;29;20030;-77
2023/05/18 01:33:38;;;;;;;1.88;1.20;;;;;;;10.13;87.00;92534.59;4922420;29;20077;-76
2023/05/18 01:36:04;;;;;;;1.80;1.20;;;;;;;10.12;87.37;92535.63;4938535;29;20039;-77
2023/05/18 01:38:30;;;;;;;2.33;1.40;;;;;;;10.10;87.59;92542.97;4955735;29;20636;-77
2023/05/18 01:41:11;;;;;;;2.92;1.10;;;;;;;10.07;86.99;92538.31;4955929;29;20056;-77
2023/05/18 01:43:46;;;;;;;1.63;1.20;;;;;;;10.08;87.11;92542.47;4951380;28;20401;-77
2023/05/18 01:46:23;;;;;;;2.33;1.23;;;;;;;10.06;87.08;92541.97;4938077;29;20043;-76
2023/05/18 01:48:55;;;;;;;1.20;1.10;;;;;;;10.07;86.34;92546.16;4955254;29;20039;-77
2023/05/18 01:51:28;;;;;;;1.20;1.08;;;;;;;10.07;85.41;92546.16;4946006;29;20489;-77
2023/05/18 01:53:59;;;;;;;1.20;1.10;;;;;;;10.07;86.08;92546.16;4956438;28;20043;-78
2023/05/18 01:56:26;;;;;;;2.83;1.42;;;;;;;10.07;87.27;92543.56;4939892;29;20434;-78
2023/05/18 01:58:52;;;;;;;3.00;1.30;;;;;;;10.06;87.73;92541.97;4939476;29;20035;-78
2023/05/18 02:01:18;;;;;;;4.32;1.20;;;;;;;10.05;87.30;92532.59;4939487;29;20031;-77
2023/05/18 02:03:44;;;;;;;2.47;1.33;;;;;;;10.04;87.74;92541.47;4939453;29;20425;-78
2023/05/18 02:06:10;;;;;;;3.13;1.30;;;;;;;10.05;87.32;92540.44;4954979;29;20035;-78
2023/05/18 02:08:36;;;;;;;1.95;1.25;;;;;;;10.04;87.25;92536.25;4955089;29;20034;-77
2023/05/18 02:11:02;;;;;;;1.48;1.02;;;;;;;10.04;86.86;92538.88;4956737;29;20043;-77
2023/05/18 02:13:28;;;;;;;1.83;1.17;;;;;;;10.01;89.00;92539.44;4923911;29;20091;-78
2023/05/18 02:15:53;;;;;;;2.08;1.27;;;;;;;10.02;88.40;92538.41;4956243;29;20030;-76
2023/05/18 02:18:20;;;;;;;2.72;1.30;;;;;;;10.00;88.59;92536.06;4937779;29;20039;-79
2023/05/18 02:20:47;;;;;;;2.78;1.23;;;;;;;10.00;88.88;92543.91;4938403;29;20486;-77
2023/05/18 02:23:14;;;;;;;4.38;1.25;;;;;;;9.99;88.87;92538.94;4956458;28;20401;-78
2023/05/18 02:25:40;;;;;;;2.58;1.30;;;;;;;9.98;88.60;92537.41;4959430;28;20031;-78
2023/05/18 02:28:06;;;;;;;1.55;1.13;;;;;;;9.98;88.98;92542.63;4955389;29;20461;-78
2023/05/18 02:30:33;;;;;;;2.58;1.20;;;;;;;9.96;89.96;92542.91;4955317;29;20039;-78
2023/05/18 02:32:58;;;;;;;2.20;1.33;;;;;;;9.96;92.27;92539.50;4922999;28;20062;-78
2023/05/18 02:35:25;;;;;;;2.10;1.38;;;;;;;9.95;93.30;92540.56;4956653;29;20038;-78
2023/05/18 02:37:50;;;;;;;2.00;1.30;;;;;;;9.94;94.61;92539.78;4955841;29;20076;-78
2023/05/18 02:40:16;;;;;;;2.90;1.50;;;;;;;9.94;95.38;92539.00;4938795;29;20122;-78
2023/05/18 02:42:42;;;;;;;2.50;1.50;;;;;;;9.91;95.10;92536.97;4922930;28;20055;-78
2023/05/18 02:45:08;;;;;;;3.72;1.50;;;;;;;9.91;96.20;92536.97;4938349;29;20054;-78
2023/05/18 02:47:34;;;;;;;2.45;1.52;;;;;;;9.89;96.81;92537.25;4954433;29;20043;-77
2023/05/18 02:50:00;;;;;;;2.05;1.30;;;;;;;9.89;98.00;92536.47;4954519;29;20051;-77
2023/05/18 02:52:26;;;;;;;2.92;1.50;;;;;;;9.89;100.00;92536.47;4938160;29;20059;-78
2023/05/18 02:54:53;;;;;;;2.67;1.50;;;;;;;9.88;100.00;92537.50;4954634;28;20239;-78
2023/05/18 02:57:26;;;;;;;3.05;1.65;;;;;;;9.89;100.00;92539.84;4923531;29;20386;-77
2023/05/18 03:00:10;;;;;;;3.60;1.80;;;;;;;9.90;100.00;92535.41;4953946;29;20405;-78
2023/05/18 03:02:37;;;;;;;3.10;1.88;;;;;;;9.89;100.00;92526.78;4954574;29;20031;-78
2023/05/18 03:05:04;;;;;;;3.28;1.85;;;;;;;9.90;100.00;92535.41;4954280;28;20038;-78
2023/05/18 03:07:31;;;;;;;4.07;1.83;;;;;;;9.90;100.00;92540.63;4955181;29;20035;-78
2023/05/18 03:09:58;;;;;;;5.47;1.80;;;;;;;9.89;100.00;92536.47;4954744;29;20039;-77
2023/05/18 03:12:23;;;;;;;3.33;1.83;;;;;;;9.89;100.00;92536.47;4955604;29;20043;-78
2023/05/18 03:14:49;;;;;;;3.90;1.60;;;;;;;9.88;100.00;92540.13;4923591;29;20040;-78
2023/05/18 03:17:15;;;;;;;2.80;1.60;;;;;;;9.87;100.00;92533.34;4953606;29;20062;-78
2023/05/18 03:19:40;;;;;;;3.50;1.70;;;;;;;9.89;100.00;92536.47;4921600;29;20117;-77
2023/05/18 03:22:06;;;;;;;3.55;1.90;;;;;;;9.88;100.00;92537.50;4954013;29;20031;-78
2023/05/18 03:24:39;;;;;;;2.78;1.65;;;;;;;9.88;100.00;92545.34;4938080;29;20096;-77
2023/05/18 03:27:07;;;;;;;7.45;1.90;;;;;;;9.88;100.00;92546.13;4922672;29;20107;-76
2023/05/18 03:29:33;;;;;;;3.53;2.08;;;;;;;9.90;100.00;92554.47;4955196;28;20107;-78
2023/05/18 03:32:01;;;;;;;3.00;1.77;;;;;;;9.90;100.00;92551.09;4953791;29;20103;-77
2023/05/18 03:34:27;;;;;;;4.15;1.90;;;;;;;9.90;100.00;92545.84;4954964;28;20482;-78
2023/05/18 03:36:53;;;;;;;3.58;1.83;;;;;;;9.91;100.00;92548.19;4927289;29;20397;-77
2023/05/18 03:39:19;;;;;;;4.75;2.00;;;;;;;9.91;100.00;92555.28;4937838;29;20101;-78
2023/05/18 03:41:45;;;;;;;3.53;1.83;;;;;;;9.91;100.00;92552.66;4955035;29;20027;-78
2023/05/18 03:44:11;;;;;;;4.07;2.00;;;;;;;9.90;100.00;92554.47;4954727;28;20572;-78
2023/05/18 03:46:36;;;;;;;3.67;2.00;;;;;;;9.92;100.00;92543.75;4953243;29;20066;-77
2023/05/18 03:49:03;;;;;;;2.90;1.70;;;;;;;9.92;100.00;92548.97;4922231;29;20043;-77
2023/05/18 03:51:35;;;;;;;5.70;1.70;;;;;;;9.91;100.00;92552.66;4953447;29;20405;-78
2023/05/18 03:54:01;;;;;;;4.38;1.83;;;;;;;9.94;100.00;92554.69;4934098;29;20044;-78
2023/05/18 03:56:29;;;;;;;4.43;1.77;;;;;;;9.95;100.00;92545.78;4934547;29;20058;-77
2023/05/18 03:58:57;;;;;;;5.85;1.67;;;;;;;9.95;100.00;92557.03;4950135;29;20568;-77
2023/05/18 04:01:23;;;;;;;3.28;1.70;;;;;;;9.96;100.00;92552.59;4918252;29;20044;-77
2023/05/18 04:03:50;;;;;;;2.95;1.67;;;;;;;9.94;100.00;92557.31;4949839;28;20035;-77
2023/05/18 04:06:16;;;;;;;3.97;1.90;;;;;;;9.98;100.00;92556.47;4950107;29;20031;-76
2023/05/18 04:08:42;;;;;;;3.28;1.65;;;;;;;9.96;100.00;92560.44;4918287;29;20512;-78
2023/05/18 04:11:08;;;;;;;4.50;1.80;;;;;;;9.95;100.00;92557.03;4917206;29;20412;-78
2023/05/18 04:13:37;;;;;;;3.22;1.60;;;;;;;9.94;100.00;92565.94;4915670;29;20035;-78
2023/05/18 04:16:03;;;;;;;2.90;1.60;;;;;;;9.95;100.00;92566.69;4934156;29;20052;-78
2023/05/18 04:18:29;;;;;;;3.65;1.80;;;;;;;9.93;100.00;92564.38;4934326;29;20052;-78
2023/05/18 04:20:55;;;;;;;5.70;2.40;;;;;;;9.92;100.00;92562.03;4934065;29;20035;-78
2023/05/18 04:23:21;;;;;;;4.00;1.83;;;;;;;9.95;100.00;92574.53;4933644;29;20032;-78
2023/05/18 04:25:48;;;;;;;5.22;1.80;;;;;;;9.96;100.00;92576.13;4948818;29;20058;-78
2023/05/18 04:28:15;;;;;;;5.00;1.75;;;;;;;9.96;100.00;92570.88;4939818;29;20047;-77
2023/05/18 04:30:40;;;;;;;3.78;1.80;;;;;;;9.97;100.00;92569.81;4917934;29;20544;-78
2023/05/18 04:33:06;;;;;;;3.00;1.75;;;;;;;9.96;100.00;92579.50;4934935;29;20181;-78
2023/05/18 04:35:31;;;;;;;3.40;2.05;;;;;;;9.96;100.00;92583.97;4935184;29;20083;-77
2023/05/18 04:37:57;;;;;;;3.30;1.88;;;;;;;9.96;100.00;92579.50;4934511;29;20240;-77
2023/05/18 04:40:24;;;;;;;4.88;1.98;;;;;;;9.93;100.00;92577.47;4936470;29;20122;-77
2023/05/18 04:42:50;;;;;;;3.78;2.08;;;;;;;9.96;100.00;92591.81;4937995;29;20071;-78
2023/05/18 04:45:24;;;;;;;4.70;1.90;;;;;;;9.94;100.00;92596.53;4927681;29;20036;-78
2023/05/18 04:47:53;;;;;;;3.83;1.90;;;;;;;9.95;100.00;92587.63;4921525;29;20055;-77
2023/05/18 04:50:22;;;;;;;4.35;2.00;;;;;;;9.95;100.00;92592.84;4936761;29;20048;-77
2023/05/18 04:52:49;;;;;;;4.03;2.03;;;;;;;9.96;100.00;92600.44;4924839;29;20048;-78
2023/05/18 04:55:21;;;;;;;4.95;2.00;;;;;;;9.96;100.00;92597.81;4937431;29;20387;-77
2023/05/18 04:57:49;;;;;;;2.80;1.67;;;;;;;9.94;100.00;92601.78;4953333;29;20063;-78
2023/05/18 05:00:15;;;;;;;6.13;1.70;;;;;;;9.97;100.00;92603.81;4921249;29;20050;-78
2023/05/18 05:02:41;;;;;;;3.97;1.80;;;;;;;9.86;100.00;92600.56;4936664;29;20040;-76
2023/05/18 05:05:07;;;;;;;2.50;1.50;;;;;;;9.79;100.00;92595.66;4937071;29;20524;-78
2023/05/18 05:07:33;;;;;;;6.18;2.10;;;;;;;9.78;100.00;92594.09;4937633;29;20040;-78
2023/05/18 05:09:58;;;;;;;10.13;4.95;;;;;;;9.94;100.00;92601.78;4936600;29;20418;-78
2023/05/18 05:12:24;;;;;;;8.35;5.40;;;;;;;9.93;100.00;92605.44;4937210;29;20035;-77
2023/05/18 05:14:50;;;;;;;8.85;5.13;;;;;;;9.97;100.00;92606.44;4937359;29;20028;-77
2023/05/18 05:17:18;;;;;;;12.77;5.88;;;;;;;9.82;100.00;92606.59;4921223;29;20059;-77
2023/05/18 05:19:44;;;;;;;10.82;5.63;;;;;;;9.72;100.00;92616.09;4937391;29;20040;-78
2023/05/18 05:22:10;;;;;;;10.45;6.85;;;;;;;9.68;100.00;92612.50;4935481;29;20495;-77
2023/05/18 05:24:36;;;;;;;9.82;5.90;;;;;;;9.67;100.00;92618.78;4938198;29;20042;-77
2023/05/18 05:27:01;;;;;;;15.75;7.30;;;;;;;9.70;100.00;92607.75;4936638;29;20046;-77
2023/05/18 05:29:27;;;;;;;11.25;6.78;;;;;;;9.70;100.00;92617.44;4945771;29;20067;-77
2023/05/18 05:31:52;;;;;;;13.05;5.93;;;;;;;9.72;100.00;92605.66;4948665;29;20036;-77
2023/05/18 05:34:18;;;;;;;12.57;7.35;;;;;;;9.79;100.00;92611.34;4947872;28;20135;-77
2023/05/18 05:36:44;;;;;;;11.23;7.22;;;;;;;9.71;100.00;92611.16;4918934;29;20047;-77
2023/05/18 05:39:10;;;;;;;14.75;7.85;;;;;;;9.63;100.00;92614.38;4936544;29;20054;-77
2023/05/18 05:41:38;;;;;;;14.98;9.00;;;;;;;9.58;100.00;92610.75;4950736;29;20401;-78
2023/05/18 05:44:04;;;;;;;14.90;9.10;;;;;;;9.69;100.00;92621.88;4948301;28;20044;-78
2023/05/18 05:46:30;;;;;;;15.82;9.85;;;;;;;9.70;100.00;92612.97;4937523;29;20035;-77
2023/05/18 05:48:56;;;;;;;17.85;10.05;;;;;;;9.79;100.00;92621.00;4934380;29;20075;-77
2023/05/18 05:51:22;;;;;;;15.88;10.23;;;;;;;9.86;100.00;92618.06;4931036;29;20047;-80
2023/05/18 05:53:48;;;;;;;19.27;11.75;;;;;;;9.83;100.00;92622.00;4933129;29;20079;-78
2023/05/18 05:56:16;;;;;;;20.63;11.32;;;;;;;9.80;100.00;92623.34;4931728;29;20044;-78
2023/05/18 05:58:41;;;;;;;21.88;11.85;;;;;;;9.73;100.00;92628.13;4926953;29;20363;-77
2023/05/18 06:01:08;;;;;;;19.38;11.80;;;;;;;9.80;100.00;92622.56;4937374;29;20070;-77
2023/05/18 06:03:35;;;;;;;18.58;10.90;;;;;;;9.77;100.00;92630.94;4938288;29;20051;-78
2023/05/18 06:06:03;;;;;;;22.05;13.70;;;;;;;9.68;100.00;92627.38;4921142;29;20047;-77
2023/05/18 06:08:29;;;;;;;20.25;12.35;;;;;;;9.70;100.00;92631.28;4936607;29;20573;-78
2023/05/18 06:10:55;;;;;;;21.02;13.27;;;;;;;9.65;100.00;92633.19;4935877;29;20067;-78
2023/05/18 06:13:22;;;;;;;21.73;12.73;;;;;;;9.70;100.00;92639.13;4936254;29;20047;-77
2023/05/18 06:15:53;;;;;;;18.70;11.80;;;;;;;9.66;100.00;92632.91;4936444;29;20028;-77
2023/05/18 06:18:20;;;;;;;18.27;10.32;;;;;;;9.73;100.00;92641.19;4920434;29;20044;-77
2023/05/18 06:20:47;;;;;;;18.30;11.32;;;;;;;9.67;100.00;92634.47;4945306;29;20039;-78
2023/05/18 06:23:14;;;;;;;18.00;10.48;;;;;;;9.59;100.00;92638.47;4921007;29;20075;-78
2023/05/18 06:25:52;;;;;;;17.25;11.35;;;;;;;9.59;100.00;92635.03;4943875;29;20116;-77
2023/05/18 06:28:37;;;;;;;13.55;7.95;;;;;;;9.57;100.00;92634.56;4926726;29;20087;-77
2023/05/18 06:31:32;;;;;;;16.52;9.93;;;;;;;9.45;100.00;92647.19;4925744;29;20051;-77
2023/05/18 06:34:05;;;;;;;13.90;9.07;;;;;;;9.49;100.00;92648.22;4947199;28;20035;-76
2023/05/18 06:36:31;;;;;;;14.75;8.02;;;;;;;9.38;100.00;92655.34;4936313;29;20039;-78
2023/05/18 06:38:57;;;;;;;11.48;7.07;;;;;;;9.29;100.00;92649.16;4938823;29;20040;-79
2023/05/18 06:41:23;;;;;;;9.93;6.65;;;;;;;9.21;100.00;92663.59;4937515;29;20047;-78
2023/05/18 06:43:49;;;;;;;10.25;6.57;;;;;;;9.14;100.00;92652.66;4935887;29;20036;-78
2023/05/18 06:46:21;;;;;;;9.13;6.25;;;;;;;9.09;100.00;92653.47;4949900;29;20122;-78
2023/05/18 06:48:50;;;;;;;11.75;6.43;;;;;;;9.09;100.00;92656.09;4935844;29;20039;-79
2023/05/18 06:51:16;;;;;;;8.68;5.20;;;;;;;9.04;100.00;92663.97;4949040;28;20091;-77
2023/05/18 06:53:43;;;;;;;9.18;5.65;;;;;;;9.01;100.00;92661.13;4935705;28;20462;-76
2023/05/18 06:56:11;;;;;;;9.50;5.80;;;;;;;9.01;100.00;92667.13;4916594;29;20111;-76
2023/05/18 06:58:39;;;;;;;8.82;5.78;;;;;;;8.99;100.00;92669.22;4954140;28;20127;-76
2023/05/18 07:01:04;;;;;;;10.20;5.70;;;;;;;9.01;100.00;92668.97;4951246;28;20044;-75
2023/05/18 07:03:31;;;;;;;15.18;6.43;;;;;;;9.01;100.00;92674.97;4940254;28;20065;-76
2023/05/18 07:05:57;;;;;;;10.05;5.88;;;;;;;9.04;100.00;92678.88;4935446;28;20967;-76
2023/05/18 07:08:23;;;;;;;11.52;6.55;;;;;;;9.06;100.00;92669.69;4944484;29;20044;-75
2023/05/18 07:10:50;;;;;;;9.95;5.88;;;;;;;9.11;100.00;92669.66;4934258;29;20434;-77
2023/05/18 07:13:16;;;;;;;9.77;5.78;;;;;;;9.14;100.00;92670.94;4934178;29;20035;-77
2023/05/18 07:15:41;;;;;;;9.43;5.38;;;;;;;9.21;100.00;92668.03;4931005;29;20110;-77
2023/05/18 07:18:08;;;;;;;10.55;6.25;;;;;;;9.26;100.00;92671.38;4930796;29;20040;-77
2023/05/18 07:20:34;;;;;;;10.02;5.60;;;;;;;9.29;100.00;92670.84;4933315;29;20071;-76
2023/05/18 07:23:00;;;;;;;8.57;5.03;;;;;;;9.36;100.00;92673.13;4934951;29;20051;-78
2023/05/18 07:25:26;;;;;;;10.25;5.38;;;;;;;9.21;100.00;92666.22;4935705;29;20046;-77
2023/05/18 07:27:53;;;;;;;8.48;5.18;;;;;;;9.27;100.00;92670.31;4936517;29;20440;-78
2023/05/18 07:30:20;;;;;;;8.23;5.05;;;;;;;9.50;100.00;92665.44;4935092;29;20379;-78
2023/05/18 07:32:46;;;;;;;8.27;5.00;;;;;;;9.40;100.00;92665.53;4934858;29;20040;-77
2023/05/18 07:35:12;;;;;;;7.55;4.10;;;;;;;9.65;100.00;92659.31;4932735;29;20094;-77
2023/05/18 07:37:37;;;;;;;6.90;4.32;;;;;;;9.54;100.00;92671.69;4937357;29;20372;-77
2023/05/18 07:40:03;;;;;;;6.28;3.55;;;;;;;9.78;100.00;92667.28;4935613;29;20773;-77
2023/05/18 07:42:30;;;;;;;7.13;3.88;;;;;;;9.86;100.00;92672.97;4938905;29;20039;-78
2023/05/18 07:44:55;;;;;;;6.82;3.83;;;;;;;9.84;100.00;92675.06;4936055;29;20067;-77
2023/05/18 07:47:22;;;;;;;6.50;3.65;;;;;;;10.01;100.00;92670.19;4935377;29;20062;-78
2023/05/18 07:49:47;;;;;;;7.53;3.90;;;;;;;10.27;100.00;92677.75;4935493;29;20043;-78
2023/05/18 07:52:13;;;;;;;6.43;3.80;;;;;;;10.40;100.00;92677.13;4938412;29;20403;-77
2023/05/18 07:54:39;;;;;;;7.47;3.40;;;;;;;10.55;100.00;92669.09;4955048;28;20523;-78
2023/05/18 07:57:05;;;;;;;6.50;3.40;;;;;;;10.80;100.00;92669.84;4922570;29;20039;-77
2023/05/18 07:59:31;;;;;;;5.82;3.17;;;;;;;11.11;100.00;92674.66;4955025;29;20035;-77
2023/05/18 08:01:57;;;;;;;7.75;3.45;;;;;;;11.02;100.00;92677.91;4955209;29;20465;-78
2023/05/18 08:04:23;;;;;;;4.95;2.90;;;;;;;11.08;100.00;92680.44;4937501;29;20038;-77
2023/05/18 08:06:49;;;;;;;6.43;2.75;;;;;;;11.32;100.00;92667.25;4953384;29;20039;-78
2023/05/18 08:09:15;;;;;;;4.53;2.58;;;;;;;11.31;100.00;92673.59;4937999;29;20089;-77
2023/05/18 08:11:41;;;;;;;6.07;2.67;;;;;;;11.51;100.00;92673.25;4955263;29;20472;-77
2023/05/18 08:14:07;;;;;;;8.45;3.35;;;;;;;11.48;100.00;92678.28;4938082;28;20031;-78
2023/05/18 08:16:35;;;;;;;7.88;3.47;;;;;;;11.91;100.00;92676.31;4922513;29;20390;-77
2023/05/18 08:19:02;;;;;;;5.68;3.30;;;;;;;12.44;100.00;92672.44;4919498;29;20040;-79
2023/05/18 08:21:28;;;;;;;5.28;3.20;;;;;;;12.74;100.00;92680.78;4953011;28;20039;-78
2023/05/18 08:23:54;;;;;;;5.97;3.22;;;;;;;12.85;100.00;92680.28;4954524;28;20038;-77
2023/05/18 08:26:20;;;;;;;6.10;3.40;;;;;;;12.97;100.00;92674.53;4953268;28;20074;-78
2023/05/18 08:28:47;;;;;;;9.32;4.35;;;;;;;13.41;100.00;92673.03;4922961;29;20043;-77
2023/05/18 08:31:16;;;;;;;6.88;4.25;;;;;;;13.48;100.00;92673.38;4956425;29;20366;-77
2023/05/18 08:33:41;;;;;;;7.55;4.50;;;;;;;13.36;100.00;92669.75;4947538;28;20091;-79
2023/05/18 08:36:07;;;;;;;9.52;4.75;;;;;;;13.23;100.00;92676.59;4951272;29;20047;-78
2023/05/18 08:38:33;;;;;;;6.68;4.28;;;;;;;12.96;100.00;92672.19;4952145;29;20062;-77
2023/05/18 08:41:25;;;;;;;7.05;4.20;;;;;;;12.71;100.00;92671.66;4938861;29;20043;-79
2023/05/18 08:44:01;;;;;;;7.07;4.53;;;;;;;12.70;100.00;92665.63;4955396;28;20039;-78
2023/05/18 08:46:32;;;;;;;8.55;4.88;;;;;;;12.60;100.00;92665.81;4954922;29;20072;-77
2023/05/18 08:48:59;;;;;;;7.13;4.47;;;;;;;12.45;100.00;92668.75;4956212;29;20027;-78
2023/05/18 08:51:28;;;;;;;8.93;4.38;;;;;;;12.24;100.00;92674.38;4958407;29;20426;-77
2023/05/18 08:53:54;;;;;;;7.55;3.83;;;;;;;12.41;100.00;92663.31;4957383;28;20054;-78
2023/05/18 08:56:25;;;;;;;8.93;4.47;;;;;;;12.78;100.00;92664.13;4955799;29;20031;-78
2023/05/18 08:58:54;;;;;;;6.95;4.13;;;;;;;13.37;100.00;92666.03;4958979;29;20051;-77
2023/05/18 09:01:21;;;;;;;7.10;4.40;;;;;;;13.81;100.00;92667.13;4957880;29;20497;-78
2023/05/18 09:03:50;;;;;;;6.60;3.97;;;;;;;14.25;100.00;92668.09;4958270;28;20043;-77
2023/05/18 09:06:18;;;;;;;8.80;3.65;;;;;;;14.49;100.00;92667.72;4957624;29;20039;-77
2023/05/18 09:08:45;;;;;;;6.28;3.85;;;;;;;14.77;100.00;92663.00;4956665;29;20103;-78
2023/05/18 09:11:12;;;;;;;9.55;3.45;;;;;;;15.09;99.12;92669.72;4957111;29;20474;-78
2023/05/18 09:13:37;;;;;;;4.80;3.10;;;;;;;14.95;99.52;92669.06;4953405;28;20075;-77
2023/05/18 09:16:03;;;;;;;7.35;3.53;;;;;;;14.91;100.00;92671.56;4942674;29;20073;-75
2023/05/18 09:18:29;;;;;;;5.32;2.97;;;;;;;15.08;100.00;92670.03;4953316;29;20396;-77
2023/05/18 09:20:55;;;;;;;5.80;3.30;;;;;;;14.76;99.97;92672.78;4952203;29;20505;-76
2023/05/18 09:23:21;;;;;;;5.50;3.30;;;;;;;14.37;99.40;92682.25;4935618;29;20039;-77
2023/05/18 09:25:49;;;;;;;7.15;3.60;;;;;;;14.13;100.00;92682.59;4955932;28;20019;-76
2023/05/18 09:28:35;;;;;;;6.72;3.70;;;;;;;14.27;98.81;92682.50;4924130;29;20036;-77
2023/05/18 09:31:03;;;;;;;6.97;4.07;;;;;;;14.20;100.00;92681.41;4952455;29;20059;-77
2023/05/18 09:33:34;;;;;;;7.35;4.10;;;;;;;14.19;100.00;92671.97;4956580;28;20532;-77
2023/05/18 09:36:00;;;;;;;6.82;4.25;;;;;;;14.11;100.00;92679.50;4953558;29;20035;-77
2023/05/18 09:38:27;;;;;;;7.75;4.70;;;;;;;14.23;100.00;92678.16;4939051;29;20046;-76
2023/05/18 09:40:53;;;;;;;6.95;4.20;;;;;;;14.57;100.00;92680.94;4957907;29;20568;-79
2023/05/18 09:43:19;;;;;;;8.32;4.78;;;;;;;14.06;100.00;92676.22;4954731;28;20046;-77
2023/05/18 09:45:48;;;;;;;10.23;4.40;;;;;;;13.49;100.00;92679.44;4956349;29;20038;-77
2023/05/18 09:48:17;;;;;;;9.10;4.43;;;;;;;13.91;100.00;92678.16;4957269;29;20031;-78
2023/05/18 09:50:45;;;;;;;7.72;4.95;;;;;;;14.34;100.00;92692.59;4939800;29;20549;-78
2023/05/18 09:53:12;;;;;;;7.10;4.47;;;;;;;14.13;98.80;92679.19;4957526;28;20102;-78
2023/05/18 09:56:03;;;;;;;7.20;4.18;;;;;;;14.03;100.00;92687.38;4956788;29;20035;-78
2023/05/18 09:58:32;;;;;;;5.45;3.50;;;;;;;14.22;98.71;92682.63;4957051;29;20035;-77
2023/05/18 10:01:00;;;;;;;5.60;2.97;;;;;;;13.85;100.00;92687.25;4955071;29;20075;-76
2023/05/18 10:03:31;;;;;;;5.20;2.90;;;;;;;13.48;100.00;92694.44;4923646;29;20490;-76
2023/05/18 10:06:16;;;;;;;5.72;3.60;;;;;;;13.53;100.00;92686.44;4956597;29;20035;-78
2023/05/18 10:08:44;;;;;;;5.63;3.47;;;;;;;13.67;100.00;92686.38;4956737;29;20031;-78
2023/05/18 10:11:11;;;;;;;8.13;3.53;;;;;;;13.65;100.00;92682.50;4946989;29;20035;-77
2023/05/18 10:13:36;;;;;;;9.63;4.07;;;;;;;13.59;100.00;92688.94;4957173;28;20069;-76
2023/05/18 10:16:06;;;;;;;5.03;3.20;;;;;;;13.65;100.00;92693.00;4957423;29;20035;-77
2023/05/18 10:18:36;;;;;;;6.20;3.40;;;;;;;13.63;100.00;92697.81;4957835;29;20032;-77
2023/05/18 10:21:03;;;;;;;5.93;3.65;;;;;;;13.56;100.00;92692.19;4959177;29;20039;-77
2023/05/18 10:23:32;;;;;;;6.22;3.58;;;;;;;13.74;100.00;92683.31;4959906;28;20039;-79
2023/05/18 10:25:58;;;;;;;6.95;3.60;;;;;;;14.07;100.00;92685.66;4959129;29;20035;-78
2023/05/18 10:28:31;;;;;;;5.22;2.95;;;;;;;14.33;100.00;92689.19;4940034;29;20024;-78
2023/05/18 10:30:58;;;;;;;6.65;3.35;;;;;;;14.63;100.00;92692.09;4956187;28;20039;-79
2023/05/18 10:33:29;;;;;;;6.28;3.55;;;;;;;14.65;100.00;92687.31;4957823;28;20027;-77
2023/05/18 10:35:56;;;;;;;5.35;3.20;;;;;;;15.01;97.67;92688.94;4942243;29;20070;-78
2023/05/18 10:38:24;;;;;;;4.30;2.55;;;;;;;14.71;98.10;92686.09;4958944;28;20042;-78
2023/05/18 10:40:53;;;;;;;5.60;3.20;;;;;;;14.45;95.74;92690.47;4959729;29;20035;-78
2023/05/18 10:43:20;;;;;;;5.43;3.53;;;;;;;14.92;97.62;92693.44;4940892;28;20043;-77
2023/05/18 10:45:52;;;;;;;5.63;3.28;;;;;;;15.09;96.57;92697.97;4955408;29;20114;-79
2023/05/18 10:48:21;;;;;;;4.90;2.80;;;;;;;14.68;91.35;92692.00;4957215;29;20135;-79
2023/05/18 10:50:49;;;;;;;4.70;2.28;;;;;;;14.36;95.43;92685.16;4958442;29;20413;-79
2023/05/18 10:53:23;;;;;;;4.30;1.90;;;;;;;14.51;93.95;92686.63;4945064;29;20055;-77
2023/05/18 10:55:50;;;;;;;3.75;1.80;;;;;;;15.24;96.23;92679.03;4958518;28;20069;-78
2023/05/18 10:58:18;;;;;;;6.18;2.72;;;;;;;15.08;90.40;92683.97;4944317;29;20023;-79
2023/05/18 11:00:48;;;;;;;8.45;2.88;;;;;;;15.64;93.85;92686.03;4956912;29;20095;-80
2023/05/18 11:03:16;;;;;;;7.47;2.70;;;;;;;15.55;93.21;92678.09;4953854;28;20066;-79
2023/05/18 11:05:43;;;;;;;5.57;2.58;;;;;;;14.97;88.79;92680.09;4954286;29;20043;-79
2023/05/18 11:08:10;;;;;;;3.33;1.90;;;;;;;14.57;88.08;92680.19;4942450;29;20497;-79
2023/05/18 11:10:41;;;;;;;4.60;2.08;;;;;;;14.48;95.60;92679.34;4958887;29;20070;-79
2023/05/18 11:13:10;;;;;;;3.38;2.13;;;;;;;14.64;95.32;92669.97;4957283;28;20093;-78
2023/05/18 11:16:08;;;;;;;6.68;2.25;;;;;;;14.73;94.30;92670.75;4958761;29;20544;-77
2023/05/18 11:18:41;;;;;;;4.35;1.92;;;;;;;14.50;95.03;92674.53;4935414;29;20047;-77
2023/05/18 11:21:49;;;;;;;6.85;2.35;;;;;;;14.09;92.11;92676.38;4957781;29;20606;-79
2023/05/18 11:24:18;;;;;;;3.88;2.15;;;;;;;13.71;97.64;92678.66;4958059;28;20035;-78
2023/05/18 11:26:55;;;;;;;3.65;2.20;;;;;;;13.47;98.59;92671.84;4958683;29;20134;-78
2023/05/18 11:29:23;;;;;;;6.07;2.47;;;;;;;13.65;100.00;92675.38;4956454;29;20031;-80
2023/05/18 11:31:53;;;;;;;5.43;2.40;;;;;;;14.09;100.00;92679.00;4949040;28;20115;-77
2023/05/18 11:34:43;;;;;;;4.70;2.60;;;;;;;14.19;95.14;92677.22;4922527;29;20072;-77